createdAt,value
2022-11-27T00:02:29.796Z,101986.91
2022-11-27T00:05:00.612Z,101985.62
2022-11-27T00:07:33.052Z,101986.10
2022-11-27T00:10:05.860Z,101980.92
2022-11-27T00:12:38.504Z,101977.05
2022-11-27T00:15:13.401Z,101973.14
2022-11-27T00:17:48.408Z,101976.77
2022-11-27T00:20:20.804Z,101978.45
2022-11-27T00:22:53.127Z,101978.16
2022-11-27T00:25:25.453Z,101977.91
2022-11-27T00:27:57.865Z,101977.70
2022-11-27T00:30:30.282Z,101977.70
2022-11-27T00:33:02.556Z,101977.29
2022-11-27T00:35:37.341Z,101973.80
2022-11-27T00:38:11.121Z,101974.48
2022-11-27T00:40:43.572Z,101974.89
2022-11-27T00:43:15.836Z,101977.36
2022-11-27T00:45:51.769Z,101983.45
2022-11-27T00:48:24.046Z,101981.44
2022-11-27T00:51:02.071Z,101986.02
2022-11-27T00:53:34.612Z,101988.02
2022-11-27T00:56:07.553Z,101989.33
2022-11-27T00:58:39.910Z,101991.77
2022-11-27T01:01:18.101Z,101988.84
2022-11-27T01:03:50.646Z,101990.06
2022-11-27T01:06:23.732Z,101990.85
2022-11-27T01:08:56.190Z,101990.23
2022-11-27T01:11:30.946Z,101992.34
2022-11-27T01:14:05.212Z,101992.81
2022-11-27T01:16:42.719Z,101994.86
2022-11-27T01:19:17.989Z,101991.49
2022-11-27T01:21:50.385Z,101989.77
2022-11-27T01:24:22.736Z,101990.42
2022-11-27T01:26:55.102Z,101991.40
2022-11-27T01:29:27.485Z,101989.45
2022-11-27T01:31:59.669Z,101988.42
2022-11-27T01:34:31.978Z,101991.34
2022-11-27T01:37:04.234Z,101994.47
2022-11-27T01:39:36.495Z,101991.30
2022-11-27T01:42:10.244Z,101987.63
2022-11-27T01:44:54.922Z,101991.52
2022-11-27T01:47:41.525Z,101991.41
2022-11-27T01:50:18.750Z,101992.11
2022-11-27T01:52:54.510Z,101991.48
2022-11-27T01:55:31.834Z,101990.13
2022-11-27T01:58:08.691Z,101990.88
2022-11-27T02:00:41.119Z,101992.67
2022-11-27T02:03:14.189Z,101992.77
2022-11-27T02:05:46.535Z,101989.25
2022-11-27T02:08:19.657Z,101989.96
2022-11-27T02:10:55.400Z,101988.14
2022-11-27T02:13:33.429Z,101988.14
2022-11-27T02:16:17.925Z,101989.25
2022-11-27T02:18:57.802Z,101991.73
2022-11-27T02:21:35.654Z,101995.10
2022-11-27T02:24:38.782Z,101996.87
2022-11-27T02:27:40.821Z,102001.11
2022-11-27T02:30:13.810Z,102002.02
2022-11-27T02:32:49.809Z,101997.77
2022-11-27T02:35:24.871Z,102001.20
2022-11-27T02:38:00.475Z,102000.05
2022-11-27T02:40:35.912Z,101999.03
2022-11-27T02:43:11.265Z,101997.09
2022-11-27T02:45:45.813Z,101994.31
2022-11-27T02:48:21.450Z,101995.64
2022-11-27T02:50:55.053Z,101998.74
2022-11-27T02:53:30.008Z,101997.16
2022-11-27T02:56:03.057Z,101991.20
2022-11-27T02:58:36.073Z,101995.27
2022-11-27T03:01:09.107Z,101998.88
2022-11-27T03:03:43.461Z,101995.77
2022-11-27T03:06:20.777Z,101999.72
2022-11-27T03:08:55.718Z,101999.77
2022-11-27T03:11:30.980Z,102000.08
2022-11-27T03:14:06.638Z,101999.44
2022-11-27T03:16:41.762Z,102001.63
2022-11-27T03:19:20.958Z,102003.80
2022-11-27T03:21:55.690Z,102002.42
2022-11-27T03:24:28.466Z,102003.26
2022-11-27T03:27:02.186Z,101999.09
2022-11-27T03:29:38.893Z,102002.67
2022-11-27T03:32:11.265Z,101999.08
2022-11-27T03:34:44.160Z,102001.29
2022-11-27T03:37:16.582Z,102002.39
2022-11-27T03:39:48.963Z,101998.28
2022-11-27T03:42:26.641Z,102000.70
2022-11-27T03:45:05.293Z,102005.04
2022-11-27T03:47:59.159Z,102008.05
2022-11-27T03:50:38.081Z,102005.90
2022-11-27T03:53:14.985Z,102004.48
2022-11-27T03:55:54.233Z,101997.86
2022-11-27T03:58:35.369Z,101998.02
2022-11-27T04:01:09.411Z,101999.88
2022-11-27T04:03:41.844Z,102005.33
2022-11-27T04:06:14.219Z,102003.48
2022-11-27T04:08:47.641Z,102000.63
2022-11-27T04:11:20.052Z,102000.75
2022-11-27T04:13:53.133Z,101998.91
2022-11-27T04:16:25.615Z,102000.17
2022-11-27T04:18:56.409Z,102002.35
2022-11-27T04:21:28.757Z,102006.15
2022-11-27T04:24:00.981Z,102004.36
2022-11-27T04:26:33.271Z,102005.08
2022-11-27T04:29:05.660Z,102002.80
2022-11-27T04:31:37.920Z,102006.08
2022-11-27T04:34:10.149Z,102003.15
2022-11-27T04:36:42.591Z,102006.26
2022-11-27T04:39:14.980Z,102009.47
2022-11-27T04:41:47.391Z,102005.35
2022-11-27T04:44:22.818Z,102007.93
2022-11-27T04:46:55.159Z,102002.71
2022-11-27T04:49:27.468Z,102005.96
2022-11-27T04:51:59.806Z,102007.89
2022-11-27T04:54:32.110Z,102004.75
2022-11-27T04:57:04.566Z,102010.48
2022-11-27T04:59:37.108Z,102008.66
2022-11-27T05:02:07.796Z,102011.95
2022-11-27T05:04:42.489Z,102015.55
2022-11-27T05:07:15.226Z,102016.77
2022-11-27T05:09:47.490Z,102026.74
2022-11-27T05:12:19.900Z,102028.13
2022-11-27T05:14:52.293Z,102022.45
2022-11-27T05:17:24.644Z,102028.92
2022-11-27T05:19:57.138Z,102029.40
2022-11-27T05:22:29.465Z,102028.84
2022-11-27T05:25:01.864Z,102031.91
2022-11-27T05:27:34.279Z,102033.00
2022-11-27T05:30:08.109Z,102033.75
2022-11-27T05:32:40.831Z,102035.10
2022-11-27T05:35:13.405Z,102037.89
2022-11-27T05:37:44.142Z,102038.89
2022-11-27T05:40:17.349Z,102040.13
2022-11-27T05:42:49.687Z,102044.16
2022-11-27T05:45:22.001Z,102044.95
2022-11-27T05:47:54.406Z,102041.71
2022-11-27T05:50:26.844Z,102038.40
2022-11-27T05:52:59.283Z,102040.69
2022-11-27T05:55:31.647Z,102041.98
2022-11-27T05:58:04.108Z,102039.52
2022-11-27T06:00:36.486Z,102044.30
2022-11-27T06:03:08.860Z,102037.45
2022-11-27T06:05:43.364Z,102036.55
2022-11-27T06:08:15.748Z,102041.43
2022-11-27T06:10:48.002Z,102041.40
2022-11-27T06:13:20.233Z,102046.20
2022-11-27T06:15:52.544Z,102043.77
2022-11-27T06:18:24.829Z,102040.16
2022-11-27T06:20:57.157Z,102040.64
2022-11-27T06:23:29.480Z,102038.71
2022-11-27T06:26:01.761Z,102041.52
2022-11-27T06:28:34.037Z,102038.92
2022-11-27T06:31:17.269Z,102038.80
2022-11-27T06:33:50.904Z,102039.27
2022-11-27T06:36:24.685Z,102040.70
2022-11-27T06:38:57.037Z,102042.67
2022-11-27T06:41:29.964Z,102043.55
2022-11-27T06:44:03.213Z,102046.98
2022-11-27T06:46:35.566Z,102046.78
2022-11-27T06:49:07.929Z,102045.63
2022-11-27T06:51:40.155Z,102046.92
2022-11-27T06:54:12.461Z,102046.42
2022-11-27T06:56:44.935Z,102048.51
2022-11-27T06:59:17.594Z,102047.73
2022-11-27T07:01:48.398Z,102046.85
2022-11-27T07:04:23.393Z,102049.37
2022-11-27T07:06:56.980Z,102050.30
2022-11-27T07:09:29.500Z,102050.17
2022-11-27T07:12:01.888Z,102048.84
2022-11-27T07:14:34.528Z,102051.14
2022-11-27T07:17:05.277Z,102051.96
2022-11-27T07:19:37.938Z,102052.65
2022-11-27T07:22:08.677Z,102052.51
2022-11-27T07:24:41.579Z,102051.97
2022-11-27T07:27:14.793Z,102055.60
2022-11-27T07:29:47.065Z,102055.54
2022-11-27T07:32:19.314Z,102058.30
2022-11-27T07:34:51.720Z,102057.71
2022-11-27T07:37:24.032Z,102060.80
2022-11-27T07:40:02.553Z,102061.55
2022-11-27T07:42:38.394Z,102058.05
2022-11-27T07:45:12.469Z,102058.24
2022-11-27T07:47:44.772Z,102056.48
2022-11-27T07:50:17.051Z,102060.59
2022-11-27T07:52:49.304Z,102059.50
2022-11-27T07:55:21.483Z,102056.70
2022-11-27T07:57:54.004Z,102054.84
2022-11-27T08:00:26.470Z,102054.54
2022-11-27T08:02:58.808Z,102055.81
2022-11-27T08:05:31.119Z,102057.50
2022-11-27T08:08:05.040Z,102058.22
2022-11-27T08:10:39.887Z,102059.29
2022-11-27T08:13:12.532Z,102058.02
2022-11-27T08:15:43.099Z,102060.84
2022-11-27T08:18:15.595Z,102065.24
2022-11-27T08:20:47.823Z,102058.84
2022-11-27T08:23:20.240Z,102059.48
2022-11-27T08:25:52.536Z,102058.02
2022-11-27T08:28:24.720Z,102058.85
2022-11-27T08:31:01.343Z,102060.64
2022-11-27T08:33:33.999Z,102062.02
2022-11-27T08:36:04.787Z,102065.23
2022-11-27T08:38:37.290Z,102065.70
2022-11-27T08:41:11.320Z,102065.85
2022-11-27T08:43:43.651Z,102064.79
2022-11-27T08:46:16.164Z,102062.87
2022-11-27T08:48:48.543Z,102062.98
2022-11-27T08:51:21.081Z,102055.63
2022-11-27T08:53:51.764Z,102058.96
2022-11-27T08:56:25.409Z,102058.16
2022-11-27T08:58:58.159Z,102057.27
2022-11-27T09:01:32.580Z,102060.33
2022-11-27T09:04:05.300Z,102062.56
2022-11-27T09:06:37.899Z,102063.58
2022-11-27T09:09:08.914Z,102066.86
2022-11-27T09:11:41.787Z,102065.11
2022-11-27T09:14:14.562Z,102060.15
2022-11-27T09:16:47.698Z,102054.61
2022-11-27T09:19:18.632Z,102052.84
2022-11-27T09:21:52.175Z,102049.42
2022-11-27T09:24:24.972Z,102045.15
2022-11-27T09:26:57.270Z,102043.83
2022-11-27T09:29:29.571Z,102042.19
2022-11-27T09:32:02.363Z,102043.23
2022-11-27T09:34:37.470Z,102038.96
2022-11-27T09:37:11.228Z,102036.04
2022-11-27T09:39:43.531Z,102032.14
2022-11-27T09:42:30.131Z,102030.26
2022-11-27T09:45:02.843Z,102030.76
2022-11-27T09:47:41.921Z,102033.49
2022-11-27T09:50:18.191Z,102031.67
2022-11-27T09:52:53.720Z,102030.47
2022-11-27T09:55:30.029Z,102028.27
2022-11-27T09:58:13.082Z,102032.09
2022-11-27T10:00:46.581Z,102028.20
2022-11-27T10:03:24.783Z,102026.91
2022-11-27T10:06:04.454Z,102029.52
2022-11-27T10:08:43.233Z,102032.04
2022-11-27T10:11:24.808Z,102029.20
2022-11-27T10:14:19.441Z,102030.44
2022-11-27T10:16:55.809Z,102022.27
2022-11-27T10:19:36.461Z,102019.60
2022-11-27T10:25:13.023Z,102010.41
2022-11-27T10:27:48.996Z,102008.83
2022-11-27T10:30:23.422Z,102007.78
2022-11-27T10:32:58.767Z,102005.27
2022-11-27T10:35:32.409Z,102006.59
2022-11-27T10:38:08.393Z,102004.75
2022-11-27T10:40:43.272Z,102003.58
2022-11-27T10:43:20.686Z,101998.00
2022-11-27T10:45:55.457Z,101994.89
2022-11-27T10:48:29.744Z,101995.23
2022-11-27T10:51:01.980Z,101989.55
2022-11-27T10:53:36.012Z,101985.83
2022-11-27T10:56:26.651Z,101985.16
2022-11-27T10:59:01.226Z,101980.02
2022-11-27T11:01:45.699Z,101976.98
2022-11-27T11:04:37.467Z,101977.39
2022-11-27T11:07:27.482Z,101978.19
2022-11-27T11:09:59.985Z,101971.09
2022-11-27T11:12:30.825Z,101969.05
2022-11-27T11:15:04.971Z,101964.35
2022-11-27T11:17:38.539Z,101962.48
2022-11-27T11:20:21.577Z,101954.48
2022-11-27T11:22:54.445Z,101955.70
2022-11-27T11:25:26.738Z,101951.35
2022-11-27T11:27:59.033Z,101944.33
2022-11-27T11:30:33.590Z,101943.48
2022-11-27T11:33:06.840Z,101935.54
2022-11-27T11:35:39.544Z,101931.77
2022-11-27T11:38:19.048Z,101927.40
2022-11-27T11:41:03.152Z,101929.30
2022-11-27T11:43:37.210Z,101927.03
2022-11-27T11:46:19.443Z,101925.01
2022-11-27T11:49:03.088Z,101921.36
2022-11-27T11:52:21.190Z,101919.83
2022-11-27T11:55:01.345Z,101916.44
2022-11-27T11:58:12.676Z,101914.08
2022-11-27T12:01:11.793Z,101915.85
2022-11-27T12:03:55.918Z,101916.83
2022-11-27T12:06:42.416Z,101915.48
2022-11-27T12:09:35.985Z,101909.39
2022-11-27T12:12:07.997Z,101909.73
2022-11-27T12:14:44.900Z,101909.13
2022-11-27T12:17:27.796Z,101908.82
2022-11-27T12:20:18.485Z,101905.83
2022-11-27T12:23:21.087Z,101904.52
2022-11-27T12:25:58.960Z,101899.18
2022-11-27T12:28:46.466Z,101895.13
2022-11-27T12:31:32.995Z,101888.44
2022-11-27T12:34:08.923Z,101886.63
2022-11-27T12:37:00.659Z,101889.78
2022-11-27T12:39:37.880Z,101891.44
2022-11-27T12:42:21.956Z,101896.60
2022-11-27T12:44:58.519Z,101894.98
2022-11-27T12:47:40.031Z,101891.91
2022-11-27T12:50:19.458Z,101892.10
2022-11-27T12:52:59.677Z,101892.67
2022-11-27T12:55:34.171Z,101894.06
2022-11-27T12:58:10.694Z,101898.01
2022-11-27T13:00:44.161Z,101897.64
2022-11-27T13:03:20.126Z,101894.48
2022-11-27T13:05:56.942Z,101896.02
2022-11-27T13:08:32.323Z,101894.52
2022-11-27T13:11:08.458Z,101896.64
2022-11-27T13:13:42.669Z,101896.77
2022-11-27T13:16:20.464Z,101893.87
2022-11-27T13:18:56.378Z,101894.71
2022-11-27T13:21:34.294Z,101895.31
2022-11-27T13:24:07.667Z,101892.73
2022-11-27T13:26:48.408Z,101891.98
2022-11-27T13:29:26.162Z,101892.86
2022-11-27T13:32:00.339Z,101895.77
2022-11-27T13:34:34.095Z,101895.20
2022-11-27T13:37:08.640Z,101892.75
2022-11-27T13:39:42.807Z,101892.26
2022-11-27T13:42:22.425Z,101895.42
2022-11-27T13:44:59.480Z,101891.95
2022-11-27T13:47:38.306Z,101892.80
2022-11-27T13:50:13.451Z,101894.33
2022-11-27T13:52:57.425Z,101891.08
2022-11-27T13:55:32.128Z,101893.34
2022-11-27T13:58:05.790Z,101891.45
2022-11-27T14:00:40.912Z,101891.92
2022-11-27T14:03:26.792Z,101898.48
2022-11-27T14:05:59.613Z,101896.79
2022-11-27T14:08:35.248Z,101892.34
2022-11-27T14:11:11.877Z,101889.51
2022-11-27T14:13:45.563Z,101889.25
2022-11-27T14:16:26.388Z,101890.19
2022-11-27T14:19:02.110Z,101896.92
2022-11-27T14:21:42.816Z,101894.54
2022-11-27T14:24:35.599Z,101894.94
2022-11-27T14:27:19.434Z,101898.28
2022-11-27T14:29:52.330Z,101898.77
2022-11-27T14:32:24.569Z,101898.48
2022-11-27T14:34:56.829Z,101897.66
2022-11-27T14:37:29.855Z,101897.63
2022-11-27T14:40:02.227Z,101900.25
2022-11-27T14:42:39.103Z,101898.20
2022-11-27T14:45:16.728Z,101894.30
2022-11-27T14:47:52.201Z,101894.58
2022-11-27T14:50:24.786Z,101890.89
2022-11-27T14:52:55.859Z,101888.76
2022-11-27T14:55:34.470Z,101884.25
2022-11-27T14:58:07.123Z,101883.31
2022-11-27T15:00:39.428Z,101886.73
2022-11-27T15:03:17.623Z,101886.04
2022-11-27T15:05:56.514Z,101885.65
2022-11-27T15:08:29.099Z,101883.74
2022-11-27T15:11:00.083Z,101886.29
2022-11-27T15:13:33.993Z,101886.86
2022-11-27T15:16:09.227Z,101889.02
2022-11-27T15:18:41.751Z,101892.19
2022-11-27T15:21:12.613Z,101892.84
2022-11-27T15:23:49.733Z,101891.64
2022-11-27T15:26:34.813Z,101896.42
2022-11-27T15:29:07.551Z,101896.17
2022-11-27T15:31:53.469Z,101891.96
2022-11-27T15:34:26.626Z,101899.91
2022-11-27T15:37:02.478Z,101897.20
2022-11-27T15:39:40.214Z,101902.07
2022-11-27T15:42:14.695Z,101902.58
2022-11-27T15:44:47.008Z,101907.33
2022-11-27T15:47:28.213Z,101902.31
2022-11-27T15:50:01.701Z,101898.23
2022-11-27T15:52:34.321Z,101901.34
2022-11-27T15:55:05.705Z,101902.44
2022-11-27T15:57:37.891Z,101901.58
2022-11-27T16:00:13.214Z,101897.55
2022-11-27T16:02:46.180Z,101900.60
2022-11-27T16:05:18.743Z,101902.30
2022-11-27T16:07:54.840Z,101900.73
2022-11-27T16:10:27.748Z,101901.21
2022-11-27T16:12:59.919Z,101899.23
2022-11-27T16:15:33.241Z,101900.51
2022-11-27T16:18:07.273Z,101897.65
2022-11-27T16:20:40.705Z,101893.97
2022-11-27T16:23:12.993Z,101897.41
2022-11-27T16:25:45.134Z,101890.51
2022-11-27T16:28:19.329Z,101890.64
2022-11-27T16:30:51.720Z,101894.48
2022-11-27T16:33:26.158Z,101892.90
2022-11-27T16:36:04.918Z,101893.11
2022-11-27T16:38:37.444Z,101895.98
2022-11-27T16:41:11.633Z,101900.02
2022-11-27T16:43:48.970Z,101893.23
2022-11-27T16:46:23.317Z,101893.35
2022-11-27T16:48:57.097Z,101889.85
2022-11-27T16:51:32.086Z,101890.02
2022-11-27T16:54:06.482Z,101890.48
2022-11-27T16:56:38.915Z,101891.49
2022-11-27T16:59:13.281Z,101892.23
2022-11-27T17:01:45.804Z,101886.70
2022-11-27T17:04:20.474Z,101882.80
2022-11-27T17:06:53.983Z,101880.41
2022-11-27T17:09:29.432Z,101882.00
2022-11-27T17:12:01.609Z,101888.86
2022-11-27T17:14:33.753Z,101889.61
2022-11-27T17:17:06.884Z,101887.13
2022-11-27T17:19:39.335Z,101886.75
2022-11-27T17:22:12.806Z,101887.52
2022-11-27T17:24:43.438Z,101885.91
2022-11-27T17:27:15.767Z,101888.07
2022-11-27T17:29:47.960Z,101891.21
2022-11-27T17:32:21.748Z,101895.19
2022-11-27T17:34:54.471Z,101897.94
2022-11-27T17:37:24.942Z,101897.65
2022-11-27T17:39:59.212Z,101899.54
2022-11-27T17:42:32.756Z,101900.98
2022-11-27T17:45:04.449Z,101905.02
2022-11-27T17:47:37.349Z,101907.91
2022-11-27T17:50:11.463Z,101910.09
2022-11-27T17:52:43.644Z,101911.06
2022-11-27T17:55:15.863Z,101909.45
2022-11-27T17:57:48.727Z,101910.95
2022-11-27T18:00:21.393Z,101909.60
2022-11-27T18:02:51.904Z,101909.79
2022-11-27T18:05:24.147Z,101906.77
2022-11-27T18:07:57.527Z,101906.97
2022-11-27T18:10:30.603Z,101907.27
2022-11-27T18:13:03.093Z,101904.65
2022-11-27T18:15:36.586Z,101909.16
2022-11-27T18:18:10.752Z,101904.83
2022-11-27T18:20:43.222Z,101907.38
2022-11-27T18:23:16.395Z,101909.96
2022-11-27T18:25:49.180Z,101903.83
2022-11-27T18:28:21.827Z,101903.96
2022-11-27T18:30:54.218Z,101908.86
2022-11-27T18:33:26.591Z,101907.92
2022-11-27T18:35:59.110Z,101908.48
2022-11-27T18:38:33.034Z,101906.70
2022-11-27T18:41:11.345Z,101904.55
2022-11-27T18:43:44.117Z,101900.31
2022-11-27T18:46:18.935Z,101905.27
2022-11-27T18:48:52.726Z,101910.23
2022-11-27T18:51:26.737Z,101909.23
2022-11-27T18:53:59.741Z,101905.85
2022-11-27T18:56:33.373Z,101908.57
2022-11-27T18:59:07.249Z,101907.02
2022-11-27T19:01:42.586Z,101905.52
2022-11-27T19:04:15.561Z,101906.63
2022-11-27T19:06:50.159Z,101903.63
2022-11-27T19:09:22.590Z,101907.30
2022-11-27T19:11:55.083Z,101906.36
2022-11-27T19:14:27.539Z,101908.75
2022-11-27T19:17:02.540Z,101908.53
2022-11-27T19:22:30.053Z,101905.27
2022-11-27T19:25:02.538Z,101901.92
2022-11-27T19:27:35.066Z,101903.33
2022-11-27T19:30:09.778Z,101906.30
2022-11-27T19:32:42.247Z,101907.70
2022-11-27T19:35:14.729Z,101905.30
2022-11-27T19:37:47.179Z,101905.05
2022-11-27T19:40:20.390Z,101901.10
2022-11-27T19:42:56.690Z,101897.71
2022-11-27T19:45:32.936Z,101898.35
2022-11-27T19:48:05.760Z,101902.08
2022-11-27T19:50:38.323Z,101901.45
2022-11-27T19:53:10.996Z,101900.38
2022-11-27T19:55:43.433Z,101896.14
2022-11-27T19:58:16.852Z,101894.85
2022-11-27T20:00:49.429Z,101890.04
2022-11-27T20:03:21.988Z,101892.09
2022-11-27T20:06:04.536Z,101893.36
2022-11-27T20:08:37.505Z,101892.33
2022-11-27T20:11:10.629Z,101892.33
2022-11-27T20:13:44.512Z,101885.09
2022-11-27T20:16:22.835Z,101879.90
2022-11-27T20:18:55.329Z,101885.65
2022-11-27T20:21:28.527Z,101884.46
2022-11-27T20:24:01.066Z,101882.28
2022-11-27T20:26:36.177Z,101886.29
2022-11-27T20:29:11.190Z,101882.73
2022-11-27T20:31:45.166Z,101884.34
2022-11-27T20:34:21.836Z,101882.07
2022-11-27T20:36:54.352Z,101878.87
2022-11-27T20:39:28.572Z,101877.83
2022-11-27T20:42:01.018Z,101874.84
2022-11-27T20:44:33.534Z,101875.72
2022-11-27T20:47:06.082Z,101877.14
2022-11-27T20:49:38.708Z,101875.27
2022-11-27T20:52:11.544Z,101874.96
2022-11-27T20:54:44.042Z,101874.57
2022-11-27T20:57:16.570Z,101877.53
2022-11-27T20:59:48.997Z,101878.08
2022-11-27T21:02:21.579Z,101884.90
2022-11-27T21:04:54.117Z,101882.97
2022-11-27T21:07:26.626Z,101883.46
2022-11-27T21:09:59.197Z,101887.80
2022-11-27T21:12:31.641Z,101895.64
2022-11-27T21:15:04.155Z,101899.08
2022-11-27T21:17:36.593Z,101900.98
2022-11-27T21:20:13.311Z,101898.67
2022-11-27T21:22:45.884Z,101898.17
2022-11-27T21:25:21.520Z,101901.56
2022-11-27T21:27:58.616Z,101900.11
2022-11-27T21:30:31.124Z,101899.91
2022-11-27T21:33:03.565Z,101898.77
2022-11-27T21:35:40.179Z,101897.86
2022-11-27T21:38:13.069Z,101894.27
2022-11-27T21:40:45.649Z,101899.12
2022-11-27T21:43:18.062Z,101898.08
2022-11-27T21:45:50.669Z,101901.30
2022-11-27T21:48:23.369Z,101898.95
2022-11-27T21:51:03.288Z,101899.61
2022-11-27T21:53:36.379Z,101899.01
2022-11-27T21:56:10.471Z,101904.14
2022-11-27T21:58:43.548Z,101899.80
2022-11-27T22:01:18.387Z,101902.16
2022-11-27T22:03:54.297Z,101902.83
2022-11-27T22:06:28.991Z,101902.50
2022-11-27T22:09:01.996Z,101898.05
2022-11-27T22:11:34.435Z,101897.02
2022-11-27T22:14:08.229Z,101895.22
2022-11-27T22:16:45.390Z,101895.63
2022-11-27T22:19:19.053Z,101895.61
2022-11-27T22:21:50.075Z,101893.23
2022-11-27T22:24:22.549Z,101892.80
2022-11-27T22:26:55.041Z,101892.34
2022-11-27T22:29:27.512Z,101890.00
2022-11-27T22:32:00.118Z,101886.77
2022-11-27T22:34:32.643Z,101884.71
2022-11-27T22:37:06.216Z,101884.27
2022-11-27T22:39:38.751Z,101884.16
2022-11-27T22:42:12.332Z,101881.84
2022-11-27T22:44:44.952Z,101881.29
2022-11-27T22:47:17.425Z,101882.04
2022-11-27T22:49:49.851Z,101880.13
2022-11-27T22:52:22.345Z,101878.91
2022-11-27T22:54:54.788Z,101876.73
2022-11-27T22:57:27.239Z,101877.67
2022-11-27T22:59:59.637Z,101873.55
2022-11-27T23:02:32.200Z,101876.13
2022-11-27T23:05:05.012Z,101873.33
2022-11-27T23:07:37.610Z,101874.21
2022-11-27T23:10:13.195Z,101875.90
2022-11-27T23:12:45.625Z,101867.73
2022-11-27T23:15:18.201Z,101869.02
2022-11-27T23:17:52.727Z,101869.58
2022-11-27T23:20:25.351Z,101869.19
2022-11-27T23:22:57.943Z,101865.27
2022-11-27T23:25:32.116Z,101867.81
2022-11-27T23:28:04.889Z,101866.52
2022-11-27T23:30:38.340Z,101860.54
2022-11-27T23:33:10.921Z,101858.68
2022-11-27T23:35:43.258Z,101854.28
2022-11-27T23:38:15.838Z,101857.58
2022-11-27T23:40:48.364Z,101855.70
2022-11-27T23:43:20.778Z,101853.71
2022-11-27T23:45:53.371Z,101849.34
2022-11-27T23:48:25.955Z,101848.73
2022-11-27T23:50:58.469Z,101848.64
2022-11-27T23:53:32.054Z,101847.78
2022-11-27T23:56:05.326Z,101850.60
2022-11-27T23:58:42.306Z,101845.80
